createdAt,value
2022-08-05T00:01:28.034Z,18.50
2022-08-05T00:06:33.338Z,14.80
2022-08-05T00:11:49.661Z,14.07
2022-08-05T00:16:58.478Z,14.95
2022-08-05T00:22:04.661Z,20.70
2022-08-05T00:27:10.554Z,15.82
2022-08-05T00:32:18.808Z,17.20
2022-08-05T00:37:21.229Z,16.33
2022-08-05T00:42:31.546Z,19.35
2022-08-05T00:47:57.077Z,16.70
2022-08-05T00:52:57.230Z,14.50
2022-08-05T00:58:00.065Z,24.87
2022-08-05T01:03:02.478Z,19.57
2022-08-05T01:08:40.259Z,17.57
2022-08-05T01:13:58.585Z,15.87
2022-08-05T01:19:30.381Z,26.02
2022-08-05T01:24:50.422Z,16.77
2022-08-05T01:29:55.261Z,16.63
2022-08-05T01:35:02.275Z,19.37
2022-08-05T01:40:06.760Z,18.23
2022-08-05T01:45:09.773Z,16.37
2022-08-05T01:50:17.353Z,17.67
2022-08-05T01:55:21.535Z,17.70
2022-08-05T02:00:30.348Z,17.13
2022-08-05T02:05:36.501Z,17.67
2022-08-05T02:10:51.938Z,18.27
2022-08-05T02:16:04.773Z,19.77
2022-08-05T02:21:15.018Z,34.33
2022-08-05T02:26:23.069Z,23.80
2022-08-05T02:31:35.007Z,19.13
2022-08-05T02:36:41.771Z,18.10
2022-08-05T02:41:57.843Z,21.90
2022-08-05T02:47:06.520Z,31.75
2022-08-05T02:52:30.278Z,22.70
2022-08-05T02:58:19.950Z,22.87
2022-08-05T03:02:57.847Z,25.57
2022-08-05T03:08:08.638Z,25.73
2022-08-05T03:13:16.732Z,25.57
2022-08-05T03:18:19.355Z,23.67
2022-08-05T03:23:33.665Z,22.57
2022-08-05T03:28:37.065Z,23.53
2022-08-05T03:33:51.043Z,23.53
2022-08-05T03:38:55.418Z,20.77
2022-08-05T03:44:09.235Z,22.53
2022-08-05T03:49:13.565Z,23.20
2022-08-05T03:55:34.573Z,24.83
2022-08-05T04:00:15.843Z,23.92
2022-08-05T04:05:19.163Z,25.73
2022-08-05T04:10:21.684Z,25.77
2022-08-05T04:15:24.562Z,23.83
2022-08-05T04:20:26.935Z,23.10
2022-08-05T04:25:56.472Z,21.90
2022-08-05T04:30:51.425Z,22.58
2022-08-05T04:36:10.962Z,22.98
2022-08-05T04:41:37.673Z,20.90
2022-08-05T04:46:41.087Z,19.90
2022-08-05T04:52:07.974Z,28.92
2022-08-05T04:57:37.008Z,24.55
2022-08-05T05:02:43.105Z,23.73
2022-08-05T05:07:55.230Z,24.48
2022-08-05T05:12:59.126Z,26.65
2022-08-05T05:18:28.251Z,28.20
2022-08-05T05:23:39.014Z,26.38
2022-08-05T05:28:56.295Z,28.02
2022-08-05T05:34:02.381Z,32.95
2022-08-05T05:39:05.099Z,27.80
2022-08-05T05:44:35.837Z,28.05
2022-08-05T05:49:35.558Z,33.75
2022-08-05T05:54:50.647Z,30.05
2022-08-05T05:59:53.458Z,30.30
2022-08-05T06:04:56.727Z,28.02
2022-08-05T06:10:04.791Z,28.33
2022-08-05T06:15:23.818Z,27.02
2022-08-05T06:20:26.644Z,26.65
2022-08-05T06:26:12.727Z,28.33
2022-08-05T06:30:53.225Z,28.17
2022-08-05T06:36:03.746Z,28.15
2022-08-05T06:41:11.660Z,26.98
2022-08-05T06:46:14.016Z,30.05
2022-08-05T06:56:33.421Z,31.13
2022-08-05T07:01:37.463Z,30.95
2022-08-05T07:06:43.142Z,28.90
2022-08-05T07:11:49.482Z,28.45
2022-08-05T07:18:00.931Z,29.27
2022-08-05T07:22:28.907Z,29.27
2022-08-05T07:27:57.134Z,30.38
2022-08-05T07:32:55.407Z,26.20
2022-08-05T07:37:59.629Z,26.55
2022-08-05T07:43:04.891Z,21.98
2022-08-05T07:49:02.776Z,22.30
2022-08-05T07:53:50.352Z,21.08
2022-08-05T07:58:57.530Z,17.15
2022-08-05T08:04:01.592Z,17.17
2022-08-05T08:09:04.382Z,17.60
2022-08-05T08:14:07.850Z,17.42
2022-08-05T08:19:37.938Z,13.13
2022-08-05T08:24:51.034Z,18.42
2022-08-05T08:30:05.601Z,18.88
2022-08-05T08:35:16.346Z,13.73
2022-08-05T08:40:25.593Z,14.38
2022-08-05T08:45:44.392Z,13.57
2022-08-05T08:51:03.886Z,14.15
2022-08-05T08:56:12.731Z,13.52
2022-08-05T09:01:15.776Z,13.70
2022-08-05T09:06:28.267Z,18.42
2022-08-05T09:51:19.106Z,12.07
2022-08-05T09:56:35.314Z,9.60
2022-08-05T10:01:46.332Z,13.27
2022-08-05T10:07:01.488Z,13.75
2022-08-05T10:12:18.460Z,12.95
2022-08-05T10:17:39.826Z,13.90
2022-08-05T10:22:50.690Z,13.95
2022-08-05T10:28:13.192Z,10.35
2022-08-05T10:33:24.299Z,12.43
2022-08-05T10:38:33.099Z,13.18
2022-08-05T10:44:04.741Z,10.65
2022-08-05T10:49:26.945Z,12.27
2022-08-05T10:54:56.806Z,10.95
2022-08-05T11:00:18.197Z,14.55
2022-08-05T11:05:23.508Z,12.77
2022-08-05T11:10:29.607Z,10.90
2022-08-05T11:16:00.026Z,11.18
2022-08-05T11:21:11.262Z,10.85
2022-08-05T11:26:28.545Z,11.60
2022-08-05T11:31:57.454Z,12.80
2022-08-05T11:36:54.730Z,13.15
2022-08-05T11:42:04.412Z,13.90
2022-08-05T11:52:35.201Z,11.48
2022-08-05T11:58:08.165Z,14.57
2022-08-05T12:03:29.630Z,10.65
2022-08-05T12:08:39.303Z,10.60
2022-08-05T12:13:58.771Z,11.35
2022-08-05T12:19:04.678Z,11.52
2022-08-05T12:24:14.211Z,11.00
2022-08-05T12:29:29.165Z,10.05
2022-08-05T12:34:41.532Z,11.55
2022-08-05T12:39:51.217Z,11.32
2022-08-05T12:45:08.812Z,10.70
2022-08-05T12:55:25.147Z,11.75
2022-08-05T13:02:01.313Z,12.07
2022-08-05T13:05:56.843Z,14.07
2022-08-05T13:11:02.468Z,12.98
2022-08-05T13:16:15.356Z,13.70
2022-08-05T13:21:19.289Z,12.85
2022-08-05T13:26:29.782Z,10.98
2022-08-05T13:32:05.048Z,11.45
2022-08-05T13:36:56.119Z,13.30
2022-08-05T13:41:58.864Z,12.52
2022-08-05T13:47:04.873Z,11.68
2022-08-05T13:52:18.492Z,11.38
2022-08-05T13:57:21.475Z,19.98
2022-08-05T14:02:26.558Z,15.45
2022-08-05T14:08:02.706Z,12.20
2022-08-05T14:12:58.258Z,12.43
2022-08-05T14:18:01.310Z,15.60
2022-08-05T14:23:03.783Z,15.02
2022-08-05T14:28:09.008Z,13.82
2022-08-05T14:33:56.301Z,18.02
2022-08-05T14:44:02.575Z,20.65
2022-08-05T14:49:11.814Z,25.17
2022-08-05T14:54:30.031Z,22.45
2022-08-05T14:59:35.783Z,24.30
2022-08-05T15:04:38.250Z,20.63
2022-08-05T15:09:52.045Z,19.00
2022-08-05T15:14:58.270Z,24.88
2022-08-05T15:20:01.033Z,19.60
2022-08-05T15:25:13.777Z,53.35
2022-08-05T15:30:16.858Z,40.55
2022-08-05T15:35:21.957Z,24.60
2022-08-05T15:41:20.065Z,31.33
2022-08-05T15:52:09.823Z,28.33
2022-08-05T15:56:52.113Z,35.35
2022-08-05T16:01:56.432Z,45.30
2022-08-05T16:07:03.694Z,45.37
2022-08-05T16:12:08.711Z,37.70
2022-08-05T16:17:11.867Z,29.15
2022-08-05T16:22:15.572Z,38.05
2022-08-05T16:27:32.310Z,33.80
2022-08-05T16:32:43.334Z,30.92
2022-08-05T16:38:03.379Z,41.40
2022-08-05T16:43:10.845Z,48.55
2022-08-05T16:48:25.144Z,45.30
2022-08-05T16:53:32.145Z,32.47
2022-08-05T16:58:53.198Z,45.40
2022-08-05T17:03:55.825Z,41.85
2022-08-05T17:08:58.535Z,36.13
2022-08-05T17:14:06.321Z,57.75
2022-08-05T17:19:10.759Z,39.90
2022-08-05T17:24:30.301Z,31.70
2022-08-05T17:29:41.075Z,31.15
2022-08-05T17:34:44.588Z,31.33
2022-08-05T17:39:51.510Z,36.80
2022-08-05T17:45:00.261Z,33.15
2022-08-05T17:50:12.858Z,34.63
2022-08-05T17:55:15.176Z,36.22
2022-08-05T18:00:18.508Z,39.45
2022-08-05T18:05:21.038Z,46.58
2022-08-05T18:10:23.473Z,35.08
2022-08-05T18:15:27.768Z,34.35
2022-08-05T18:20:36.302Z,45.25
2022-08-05T18:25:39.506Z,32.58
2022-08-05T18:30:52.178Z,28.92
2022-08-05T18:36:04.962Z,30.15
2022-08-05T18:41:57.289Z,24.92
2022-08-05T18:47:04.224Z,30.70
2022-08-05T18:52:32.954Z,33.45
2022-08-05T18:57:43.610Z,33.63
2022-08-05T19:02:55.386Z,33.75
2022-08-05T19:08:00.488Z,32.13
2022-08-05T19:13:03.065Z,40.40
2022-08-05T19:18:10.297Z,41.53
2022-08-05T19:24:03.825Z,54.65
2022-08-05T19:28:41.487Z,42.15
2022-08-05T19:33:48.566Z,46.75
2022-08-05T19:39:01.472Z,56.50
2022-08-05T19:44:13.761Z,43.83
2022-08-05T19:49:17.818Z,33.63
2022-08-05T19:54:26.649Z,35.95
2022-08-05T19:59:55.225Z,43.53
2022-08-05T20:04:58.815Z,49.47
2022-08-05T20:10:02.729Z,46.13
2022-08-05T20:15:14.399Z,43.78
2022-08-05T20:20:16.968Z,42.80
2022-08-05T20:25:19.385Z,45.47
2022-08-05T20:30:27.770Z,61.72
2022-08-05T20:35:31.598Z,56.38
2022-08-05T20:40:43.336Z,54.83
2022-08-05T20:45:55.915Z,62.60
2022-08-05T20:50:59.393Z,69.78
2022-08-05T20:56:10.421Z,77.75
2022-08-05T21:01:13.314Z,68.75
2022-08-05T21:06:27.901Z,71.68
2022-08-05T21:12:07.515Z,56.28
2022-08-05T21:16:53.571Z,47.45
2022-08-05T21:21:55.878Z,36.40
2022-08-05T21:26:58.881Z,38.00
2022-08-05T21:32:02.824Z,34.70
2022-08-05T21:37:05.332Z,32.92
2022-08-05T21:42:30.584Z,33.25
2022-08-05T21:47:55.139Z,35.15
2022-08-05T21:52:52.851Z,34.42
2022-08-05T21:57:55.214Z,30.42
2022-08-05T22:02:58.405Z,28.20
2022-08-05T22:08:02.229Z,25.88
2022-08-05T22:13:09.129Z,26.77
2022-08-05T22:18:27.095Z,24.07
2022-08-05T22:24:01.242Z,27.98
2022-08-05T22:29:05.993Z,28.90
2022-08-05T22:34:08.472Z,30.27
2022-08-05T22:39:21.561Z,26.50
2022-08-05T22:44:23.920Z,26.23
2022-08-05T22:50:21.399Z,30.20
2022-08-05T22:54:49.765Z,21.33
2022-08-05T22:59:54.077Z,22.17
2022-08-05T23:04:56.591Z,24.98
2022-08-05T23:10:01.173Z,19.17
2022-08-05T23:15:08.930Z,27.90
2022-08-05T23:20:16.626Z,21.50
2022-08-05T23:25:53.250Z,26.13
2022-08-05T23:30:52.805Z,22.13
2022-08-05T23:35:56.611Z,24.70
2022-08-05T23:40:58.889Z,28.03
2022-08-05T23:46:20.632Z,18.60
2022-08-05T23:51:24.235Z,20.07
2022-08-05T23:56:27.520Z,23.27
